sensor_id;sensor_type;location;lat;lon;timestamp;P1;durP1;ratioP1;P2;durP2;ratioP2
70228;SDS011;57617;51.988;5.854;2023-05-14T00:01:52;17.40;;;11.07;;
70228;SDS011;57617;51.988;5.854;2023-05-14T00:04:17;18.95;;;11.38;;
70228;SDS011;57617;51.988;5.854;2023-05-14T00:06:45;19.92;;;11.73;;
70228;SDS011;57617;51.988;5.854;2023-05-14T00:09:11;19.85;;;11.38;;
70228;SDS011;57617;51.988;5.854;2023-05-14T00:11:37;20.63;;;12.02;;
70228;SDS011;57617;51.988;5.854;2023-05-14T00:14:02;17.30;;;11.80;;
70228;SDS011;57617;51.988;5.854;2023-05-14T00:16:27;18.27;;;11.45;;
70228;SDS011;57617;51.988;5.854;2023-05-14T00:18:53;20.83;;;11.80;;
70228;SDS011;57617;51.988;5.854;2023-05-14T00:21:18;19.60;;;11.73;;
70228;SDS011;57617;51.988;5.854;2023-05-14T00:23:43;19.85;;;11.00;;
70228;SDS011;57617;51.988;5.854;2023-05-14T00:26:09;16.80;;;10.98;;
70228;SDS011;57617;51.988;5.854;2023-05-14T00:28:34;18.25;;;11.48;;
70228;SDS011;57617;51.988;5.854;2023-05-14T00:31:00;19.23;;;12.10;;
70228;SDS011;57617;51.988;5.854;2023-05-14T00:33:25;20.30;;;11.40;;
70228;SDS011;57617;51.988;5.854;2023-05-14T00:35:50;17.98;;;11.30;;
70228;SDS011;57617;51.988;5.854;2023-05-14T00:38:15;18.58;;;11.73;;
70228;SDS011;57617;51.988;5.854;2023-05-14T00:40:43;17.25;;;11.20;;
70228;SDS011;57617;51.988;5.854;2023-05-14T00:43:13;15.65;;;10.55;;
70228;SDS011;57617;51.988;5.854;2023-05-14T00:45:39;21.23;;;11.80;;
70228;SDS011;57617;51.988;5.854;2023-05-14T00:48:04;25.00;;;12.23;;
70228;SDS011;57617;51.988;5.854;2023-05-14T00:50:30;20.40;;;12.10;;
70228;SDS011;57617;51.988;5.854;2023-05-14T00:52:55;19.58;;;11.90;;
70228;SDS011;57617;51.988;5.854;2023-05-14T00:55:20;18.63;;;11.32;;
70228;SDS011;57617;51.988;5.854;2023-05-14T00:57:46;18.83;;;11.75;;
70228;SDS011;57617;51.988;5.854;2023-05-14T01:00:13;20.77;;;11.35;;
70228;SDS011;57617;51.988;5.854;2023-05-14T01:02:38;19.27;;;11.57;;
70228;SDS011;57617;51.988;5.854;2023-05-14T01:05:04;19.42;;;11.93;;
70228;SDS011;57617;51.988;5.854;2023-05-14T01:10:18;21.67;;;12.15;;
70228;SDS011;57617;51.988;5.854;2023-05-14T01:12:57;18.80;;;11.23;;
70228;SDS011;57617;51.988;5.854;2023-05-14T01:15:29;20.48;;;11.68;;
70228;SDS011;57617;51.988;5.854;2023-05-14T01:17:58;19.98;;;12.18;;
70228;SDS011;57617;51.988;5.854;2023-05-14T01:20:26;21.23;;;12.05;;
70228;SDS011;57617;51.988;5.854;2023-05-14T01:22:51;18.08;;;12.20;;
70228;SDS011;57617;51.988;5.854;2023-05-14T01:25:17;18.80;;;12.20;;
70228;SDS011;57617;51.988;5.854;2023-05-14T01:27:52;20.45;;;13.07;;
70228;SDS011;57617;51.988;5.854;2023-05-14T01:33:01;21.30;;;12.40;;
70228;SDS011;57617;51.988;5.854;2023-05-14T01:35:30;23.92;;;12.60;;
70228;SDS011;57617;51.988;5.854;2023-05-14T01:37:56;19.13;;;12.30;;
70228;SDS011;57617;51.988;5.854;2023-05-14T01:40:24;19.45;;;12.75;;
70228;SDS011;57617;51.988;5.854;2023-05-14T01:42:50;22.48;;;12.73;;
70228;SDS011;57617;51.988;5.854;2023-05-14T01:45:19;21.58;;;12.45;;
70228;SDS011;57617;51.988;5.854;2023-05-14T01:47:45;20.98;;;12.48;;
70228;SDS011;57617;51.988;5.854;2023-05-14T01:50:10;21.90;;;12.38;;
70228;SDS011;57617;51.988;5.854;2023-05-14T01:52:35;25.90;;;13.02;;
70228;SDS011;57617;51.988;5.854;2023-05-14T01:55:01;21.02;;;12.55;;
70228;SDS011;57617;51.988;5.854;2023-05-14T01:57:26;24.40;;;12.85;;
70228;SDS011;57617;51.988;5.854;2023-05-14T01:59:51;24.35;;;13.15;;
70228;SDS011;57617;51.988;5.854;2023-05-14T02:02:16;24.35;;;13.38;;
70228;SDS011;57617;51.988;5.854;2023-05-14T02:04:42;22.17;;;12.75;;
70228;SDS011;57617;51.988;5.854;2023-05-14T02:07:07;21.88;;;12.50;;
70228;SDS011;57617;51.988;5.854;2023-05-14T02:09:33;19.83;;;12.57;;
70228;SDS011;57617;51.988;5.854;2023-05-14T02:11:58;24.02;;;13.55;;
70228;SDS011;57617;51.988;5.854;2023-05-14T02:14:23;20.73;;;12.75;;
70228;SDS011;57617;51.988;5.854;2023-05-14T02:16:49;23.08;;;12.85;;
70228;SDS011;57617;51.988;5.854;2023-05-14T02:19:15;24.50;;;13.65;;
70228;SDS011;57617;51.988;5.854;2023-05-14T02:21:40;24.10;;;13.55;;
70228;SDS011;57617;51.988;5.854;2023-05-14T02:24:05;21.58;;;13.48;;
70228;SDS011;57617;51.988;5.854;2023-05-14T02:26:31;24.38;;;13.13;;
70228;SDS011;57617;51.988;5.854;2023-05-14T02:28:56;23.80;;;13.02;;
70228;SDS011;57617;51.988;5.854;2023-05-14T02:31:21;23.55;;;13.15;;
70228;SDS011;57617;51.988;5.854;2023-05-14T02:33:47;24.55;;;13.45;;
70228;SDS011;57617;51.988;5.854;2023-05-14T02:36:12;20.55;;;12.70;;
70228;SDS011;57617;51.988;5.854;2023-05-14T02:38:37;22.27;;;13.38;;
70228;SDS011;57617;51.988;5.854;2023-05-14T02:41:03;22.38;;;12.80;;
70228;SDS011;57617;51.988;5.854;2023-05-14T02:43:28;21.15;;;13.18;;
70228;SDS011;57617;51.988;5.854;2023-05-14T02:45:53;25.17;;;14.10;;
70228;SDS011;57617;51.988;5.854;2023-05-14T02:48:19;21.55;;;13.40;;
70228;SDS011;57617;51.988;5.854;2023-05-14T02:50:44;22.80;;;13.77;;
70228;SDS011;57617;51.988;5.854;2023-05-14T02:53:09;22.23;;;13.73;;
70228;SDS011;57617;51.988;5.854;2023-05-14T02:55:35;21.23;;;13.65;;
70228;SDS011;57617;51.988;5.854;2023-05-14T02:58:00;28.40;;;13.27;;
70228;SDS011;57617;51.988;5.854;2023-05-14T03:00:26;24.55;;;13.05;;
70228;SDS011;57617;51.988;5.854;2023-05-14T03:02:51;25.17;;;13.43;;
70228;SDS011;57617;51.988;5.854;2023-05-14T03:05:16;25.35;;;13.70;;
70228;SDS011;57617;51.988;5.854;2023-05-14T03:07:41;25.65;;;13.90;;
70228;SDS011;57617;51.988;5.854;2023-05-14T03:10:07;24.52;;;13.93;;
70228;SDS011;57617;51.988;5.854;2023-05-14T03:12:32;23.98;;;14.10;;
70228;SDS011;57617;51.988;5.854;2023-05-14T03:14:58;23.98;;;14.75;;
70228;SDS011;57617;51.988;5.854;2023-05-14T03:17:23;21.45;;;13.63;;
70228;SDS011;57617;51.988;5.854;2023-05-14T03:19:48;22.40;;;13.65;;
70228;SDS011;57617;51.988;5.854;2023-05-14T03:22:13;27.88;;;14.52;;
70228;SDS011;57617;51.988;5.854;2023-05-14T03:24:39;25.35;;;14.13;;
70228;SDS011;57617;51.988;5.854;2023-05-14T03:27:05;23.52;;;13.32;;
70228;SDS011;57617;51.988;5.854;2023-05-14T03:29:30;24.38;;;14.02;;
70228;SDS011;57617;51.988;5.854;2023-05-14T03:31:55;26.10;;;14.15;;
70228;SDS011;57617;51.988;5.854;2023-05-14T03:34:21;27.10;;;13.75;;
70228;SDS011;57617;51.988;5.854;2023-05-14T03:36:46;24.95;;;13.80;;
70228;SDS011;57617;51.988;5.854;2023-05-14T03:39:12;29.65;;;14.23;;
70228;SDS011;57617;51.988;5.854;2023-05-14T03:41:39;26.33;;;14.20;;
70228;SDS011;57617;51.988;5.854;2023-05-14T03:44:05;22.73;;;13.45;;
70228;SDS011;57617;51.988;5.854;2023-05-14T03:46:30;25.58;;;13.65;;
70228;SDS011;57617;51.988;5.854;2023-05-14T03:48:55;26.92;;;13.77;;
70228;SDS011;57617;51.988;5.854;2023-05-14T03:51:21;26.92;;;13.43;;
70228;SDS011;57617;51.988;5.854;2023-05-14T03:53:46;25.27;;;13.60;;
70228;SDS011;57617;51.988;5.854;2023-05-14T03:56:11;25.90;;;13.85;;
70228;SDS011;57617;51.988;5.854;2023-05-14T03:58:36;26.10;;;13.82;;
70228;SDS011;57617;51.988;5.854;2023-05-14T04:01:02;23.42;;;13.45;;
70228;SDS011;57617;51.988;5.854;2023-05-14T04:03:27;26.25;;;14.70;;
70228;SDS011;57617;51.988;5.854;2023-05-14T04:05:52;23.73;;;13.57;;
70228;SDS011;57617;51.988;5.854;2023-05-14T04:08:18;23.10;;;14.00;;
70228;SDS011;57617;51.988;5.854;2023-05-14T04:10:43;28.25;;;14.65;;
70228;SDS011;57617;51.988;5.854;2023-05-14T04:13:08;27.52;;;13.60;;
70228;SDS011;57617;51.988;5.854;2023-05-14T04:15:33;27.02;;;14.38;;
70228;SDS011;57617;51.988;5.854;2023-05-14T04:18:03;25.38;;;14.07;;
70228;SDS011;57617;51.988;5.854;2023-05-14T04:20:28;24.15;;;14.43;;
70228;SDS011;57617;51.988;5.854;2023-05-14T04:22:53;23.15;;;13.82;;
70228;SDS011;57617;51.988;5.854;2023-05-14T04:25:19;24.75;;;14.38;;
70228;SDS011;57617;51.988;5.854;2023-05-14T04:27:44;27.65;;;14.48;;
70228;SDS011;57617;51.988;5.854;2023-05-14T04:30:10;32.40;;;14.52;;
70228;SDS011;57617;51.988;5.854;2023-05-14T04:32:35;28.40;;;14.05;;
70228;SDS011;57617;51.988;5.854;2023-05-14T04:35:01;26.23;;;15.13;;
70228;SDS011;57617;51.988;5.854;2023-05-14T04:37:28;31.77;;;15.07;;
70228;SDS011;57617;51.988;5.854;2023-05-14T04:39:53;25.73;;;14.75;;
70228;SDS011;57617;51.988;5.854;2023-05-14T04:42:18;27.73;;;14.90;;
70228;SDS011;57617;51.988;5.854;2023-05-14T04:44:44;23.85;;;14.07;;
70228;SDS011;57617;51.988;5.854;2023-05-14T04:47:09;27.67;;;14.93;;
70228;SDS011;57617;51.988;5.854;2023-05-14T04:49:35;29.90;;;15.10;;
70228;SDS011;57617;51.988;5.854;2023-05-14T04:52:00;27.60;;;14.57;;
70228;SDS011;57617;51.988;5.854;2023-05-14T04:54:26;32.88;;;15.65;;
70228;SDS011;57617;51.988;5.854;2023-05-14T04:56:51;29.98;;;14.68;;
70228;SDS011;57617;51.988;5.854;2023-05-14T04:59:19;29.33;;;14.70;;
70228;SDS011;57617;51.988;5.854;2023-05-14T05:01:44;26.80;;;14.18;;
70228;SDS011;57617;51.988;5.854;2023-05-14T05:04:09;26.73;;;14.00;;
70228;SDS011;57617;51.988;5.854;2023-05-14T05:06:34;29.13;;;14.82;;
70228;SDS011;57617;51.988;5.854;2023-05-14T05:09:00;31.35;;;15.30;;
70228;SDS011;57617;51.988;5.854;2023-05-14T05:11:25;25.98;;;15.45;;
70228;SDS011;57617;51.988;5.854;2023-05-14T05:13:51;28.48;;;14.60;;
70228;SDS011;57617;51.988;5.854;2023-05-14T05:16:16;28.95;;;14.27;;
70228;SDS011;57617;51.988;5.854;2023-05-14T05:18:41;29.63;;;14.63;;
70228;SDS011;57617;51.988;5.854;2023-05-14T05:21:08;25.60;;;14.35;;
70228;SDS011;57617;51.988;5.854;2023-05-14T05:23:33;24.77;;;14.30;;
70228;SDS011;57617;51.988;5.854;2023-05-14T05:25:59;27.67;;;15.07;;
70228;SDS011;57617;51.988;5.854;2023-05-14T05:28:24;32.20;;;15.23;;
70228;SDS011;57617;51.988;5.854;2023-05-14T05:30:49;25.40;;;14.73;;
70228;SDS011;57617;51.988;5.854;2023-05-14T05:33:14;31.38;;;15.50;;
70228;SDS011;57617;51.988;5.854;2023-05-14T05:35:40;31.45;;;14.98;;
70228;SDS011;57617;51.988;5.854;2023-05-14T05:38:05;29.23;;;14.23;;
70228;SDS011;57617;51.988;5.854;2023-05-14T05:40:31;24.90;;;14.30;;
70228;SDS011;57617;51.988;5.854;2023-05-14T05:42:56;30.13;;;15.55;;
70228;SDS011;57617;51.988;5.854;2023-05-14T05:45:21;25.75;;;14.48;;
70228;SDS011;57617;51.988;5.854;2023-05-14T05:47:47;27.05;;;14.20;;
70228;SDS011;57617;51.988;5.854;2023-05-14T05:50:12;30.35;;;15.27;;
70228;SDS011;57617;51.988;5.854;2023-05-14T05:52:38;28.00;;;14.80;;
70228;SDS011;57617;51.988;5.854;2023-05-14T05:55:04;27.05;;;15.13;;
70228;SDS011;57617;51.988;5.854;2023-05-14T05:57:30;26.25;;;14.32;;
70228;SDS011;57617;51.988;5.854;2023-05-14T05:59:56;29.33;;;14.98;;
70228;SDS011;57617;51.988;5.854;2023-05-14T06:02:21;24.67;;;14.18;;
70228;SDS011;57617;51.988;5.854;2023-05-14T06:04:47;28.00;;;14.65;;
70228;SDS011;57617;51.988;5.854;2023-05-14T06:07:12;26.13;;;14.05;;
70228;SDS011;57617;51.988;5.854;2023-05-14T06:09:38;27.83;;;14.93;;
70228;SDS011;57617;51.988;5.854;2023-05-14T06:12:03;26.70;;;14.05;;
70228;SDS011;57617;51.988;5.854;2023-05-14T06:14:28;26.77;;;14.40;;
70228;SDS011;57617;51.988;5.854;2023-05-14T06:16:54;24.05;;;14.05;;
70228;SDS011;57617;51.988;5.854;2023-05-14T06:19:19;29.45;;;14.63;;
70228;SDS011;57617;51.988;5.854;2023-05-14T06:21:44;26.13;;;14.05;;
70228;SDS011;57617;51.988;5.854;2023-05-14T06:24:10;22.88;;;13.38;;
70228;SDS011;57617;51.988;5.854;2023-05-14T06:26:35;23.27;;;14.38;;
70228;SDS011;57617;51.988;5.854;2023-05-14T06:29:00;24.73;;;13.35;;
70228;SDS011;57617;51.988;5.854;2023-05-14T06:31:26;27.50;;;13.90;;
70228;SDS011;57617;51.988;5.854;2023-05-14T06:33:51;24.88;;;12.95;;
70228;SDS011;57617;51.988;5.854;2023-05-14T06:36:16;23.50;;;13.82;;
70228;SDS011;57617;51.988;5.854;2023-05-14T06:38:41;28.55;;;13.82;;
70228;SDS011;57617;51.988;5.854;2023-05-14T06:41:07;24.45;;;12.85;;
70228;SDS011;57617;51.988;5.854;2023-05-14T06:43:32;25.20;;;13.18;;
70228;SDS011;57617;51.988;5.854;2023-05-14T06:45:57;28.50;;;13.82;;
70228;SDS011;57617;51.988;5.854;2023-05-14T06:48:23;23.92;;;12.73;;
70228;SDS011;57617;51.988;5.854;2023-05-14T06:50:48;23.95;;;12.63;;
70228;SDS011;57617;51.988;5.854;2023-05-14T06:53:13;24.48;;;12.90;;
70228;SDS011;57617;51.988;5.854;2023-05-14T06:55:39;24.60;;;11.93;;
70228;SDS011;57617;51.988;5.854;2023-05-14T06:58:05;23.00;;;12.50;;
70228;SDS011;57617;51.988;5.854;2023-05-14T07:00:31;22.38;;;12.30;;
70228;SDS011;57617;51.988;5.854;2023-05-14T07:02:56;23.73;;;12.38;;
70228;SDS011;57617;51.988;5.854;2023-05-14T07:05:22;21.90;;;12.60;;
70228;SDS011;57617;51.988;5.854;2023-05-14T07:07:47;20.63;;;12.45;;
70228;SDS011;57617;51.988;5.854;2023-05-14T07:10:12;23.10;;;12.85;;
70228;SDS011;57617;51.988;5.854;2023-05-14T07:12:37;22.75;;;12.02;;
70228;SDS011;57617;51.988;5.854;2023-05-14T07:15:03;20.33;;;12.20;;
70228;SDS011;57617;51.988;5.854;2023-05-14T07:17:28;21.35;;;11.63;;
70228;SDS011;57617;51.988;5.854;2023-05-14T07:19:54;22.35;;;12.30;;
70228;SDS011;57617;51.988;5.854;2023-05-14T07:22:20;19.52;;;10.82;;
70228;SDS011;57617;51.988;5.854;2023-05-14T07:24:45;19.30;;;10.98;;
70228;SDS011;57617;51.988;5.854;2023-05-14T07:27:11;21.88;;;12.00;;
70228;SDS011;57617;51.988;5.854;2023-05-14T07:29:36;21.15;;;12.05;;
70228;SDS011;57617;51.988;5.854;2023-05-14T07:32:02;17.67;;;10.98;;
70228;SDS011;57617;51.988;5.854;2023-05-14T07:34:27;19.92;;;11.30;;
70228;SDS011;57617;51.988;5.854;2023-05-14T07:36:53;18.90;;;10.55;;
70228;SDS011;57617;51.988;5.854;2023-05-14T07:39:18;18.83;;;10.98;;
70228;SDS011;57617;51.988;5.854;2023-05-14T07:41:43;19.58;;;10.95;;
70228;SDS011;57617;51.988;5.854;2023-05-14T07:44:09;18.50;;;10.50;;
70228;SDS011;57617;51.988;5.854;2023-05-14T07:46:35;19.08;;;10.82;;
70228;SDS011;57617;51.988;5.854;2023-05-14T07:49:00;19.85;;;10.23;;
70228;SDS011;57617;51.988;5.854;2023-05-14T07:51:25;16.45;;;10.38;;
70228;SDS011;57617;51.988;5.854;2023-05-14T07:53:52;18.73;;;9.85;;
70228;SDS011;57617;51.988;5.854;2023-05-14T07:56:19;19.27;;;9.90;;
70228;SDS011;57617;51.988;5.854;2023-05-14T07:58:45;15.75;;;10.10;;
70228;SDS011;57617;51.988;5.854;2023-05-14T08:01:10;20.00;;;10.07;;
70228;SDS011;57617;51.988;5.854;2023-05-14T08:03:36;14.18;;;9.55;;
70228;SDS011;57617;51.988;5.854;2023-05-14T08:06:02;14.52;;;9.85;;
70228;SDS011;57617;51.988;5.854;2023-05-14T08:08:28;14.27;;;9.30;;
70228;SDS011;57617;51.988;5.854;2023-05-14T08:10:53;17.63;;;9.23;;
70228;SDS011;57617;51.988;5.854;2023-05-14T08:13:18;18.92;;;9.70;;
70228;SDS011;57617;51.988;5.854;2023-05-14T08:15:44;15.10;;;9.35;;
70228;SDS011;57617;51.988;5.854;2023-05-14T08:18:09;15.02;;;8.88;;
70228;SDS011;57617;51.988;5.854;2023-05-14T08:20:34;17.85;;;9.18;;
70228;SDS011;57617;51.988;5.854;2023-05-14T08:23:00;14.85;;;8.85;;
70228;SDS011;57617;51.988;5.854;2023-05-14T08:25:25;13.82;;;8.48;;
70228;SDS011;57617;51.988;5.854;2023-05-14T08:27:50;14.55;;;9.35;;
70228;SDS011;57617;51.988;5.854;2023-05-14T08:30:17;13.02;;;7.72;;
70228;SDS011;57617;51.988;5.854;2023-05-14T08:32:42;12.30;;;8.32;;
70228;SDS011;57617;51.988;5.854;2023-05-14T08:35:08;13.75;;;8.05;;
70228;SDS011;57617;51.988;5.854;2023-05-14T08:37:33;13.23;;;8.05;;
70228;SDS011;57617;51.988;5.854;2023-05-14T08:39:58;14.23;;;7.20;;
70228;SDS011;57617;51.988;5.854;2023-05-14T08:42:24;26.42;;;8.82;;
70228;SDS011;57617;51.988;5.854;2023-05-14T08:44:59;13.30;;;7.07;;
70228;SDS011;57617;51.988;5.854;2023-05-14T08:47:28;11.20;;;7.10;;
70228;SDS011;57617;51.988;5.854;2023-05-14T08:50:01;10.35;;;6.55;;
70228;SDS011;57617;51.988;5.854;2023-05-14T08:52:29;10.75;;;6.18;;
70228;SDS011;57617;51.988;5.854;2023-05-14T08:54:55;12.85;;;6.35;;
70228;SDS011;57617;51.988;5.854;2023-05-14T08:57:22;10.23;;;6.18;;
70228;SDS011;57617;51.988;5.854;2023-05-14T08:59:50;11.55;;;6.72;;
70228;SDS011;57617;51.988;5.854;2023-05-14T09:02:15;10.98;;;6.05;;
70228;SDS011;57617;51.988;5.854;2023-05-14T09:04:44;10.75;;;5.88;;
70228;SDS011;57617;51.988;5.854;2023-05-14T09:07:11;9.75;;;6.03;;
70228;SDS011;57617;51.988;5.854;2023-05-14T09:09:37;10.98;;;6.18;;
70228;SDS011;57617;51.988;5.854;2023-05-14T09:12:02;11.93;;;5.95;;
70228;SDS011;57617;51.988;5.854;2023-05-14T09:14:28;10.63;;;6.10;;
70228;SDS011;57617;51.988;5.854;2023-05-14T09:16:53;12.90;;;5.97;;
70228;SDS011;57617;51.988;5.854;2023-05-14T09:19:19;10.50;;;6.75;;
70228;SDS011;57617;51.988;5.854;2023-05-14T09:21:45;11.90;;;6.70;;
70228;SDS011;57617;51.988;5.854;2023-05-14T09:24:19;10.13;;;6.50;;
70228;SDS011;57617;51.988;5.854;2023-05-14T09:26:48;10.05;;;6.78;;
70228;SDS011;57617;51.988;5.854;2023-05-14T09:29:14;11.80;;;6.30;;
70228;SDS011;57617;51.988;5.854;2023-05-14T09:31:39;9.77;;;6.20;;
70228;SDS011;57617;51.988;5.854;2023-05-14T09:34:05;10.02;;;6.13;;
70228;SDS011;57617;51.988;5.854;2023-05-14T09:36:30;10.23;;;5.97;;
70228;SDS011;57617;51.988;5.854;2023-05-14T09:38:59;12.10;;;6.07;;
70228;SDS011;57617;51.988;5.854;2023-05-14T09:41:27;11.23;;;7.13;;
70228;SDS011;57617;51.988;5.854;2023-05-14T09:43:52;10.48;;;6.75;;
70228;SDS011;57617;51.988;5.854;2023-05-14T09:46:18;8.43;;;6.57;;
70228;SDS011;57617;51.988;5.854;2023-05-14T09:48:44;11.25;;;6.63;;
70228;SDS011;57617;51.988;5.854;2023-05-14T09:51:09;19.95;;;6.50;;
70228;SDS011;57617;51.988;5.854;2023-05-14T09:53:35;8.80;;;6.30;;
70228;SDS011;57617;51.988;5.854;2023-05-14T09:56:01;11.45;;;6.38;;
70228;SDS011;57617;51.988;5.854;2023-05-14T09:58:26;9.48;;;6.65;;
70228;SDS011;57617;51.988;5.854;2023-05-14T10:00:52;10.63;;;6.43;;
70228;SDS011;57617;51.988;5.854;2023-05-14T10:03:19;9.68;;;6.10;;
70228;SDS011;57617;51.988;5.854;2023-05-14T10:05:48;13.55;;;6.47;;
70228;SDS011;57617;51.988;5.854;2023-05-14T10:08:18;9.95;;;7.10;;
70228;SDS011;57617;51.988;5.854;2023-05-14T10:10:51;9.02;;;6.30;;
70228;SDS011;57617;51.988;5.854;2023-05-14T10:13:22;9.40;;;6.22;;
70228;SDS011;57617;51.988;5.854;2023-05-14T10:18:43;8.90;;;6.35;;
70228;SDS011;57617;51.988;5.854;2023-05-14T10:21:12;8.23;;;6.07;;
70228;SDS011;57617;51.988;5.854;2023-05-14T10:23:38;10.30;;;6.50;;
70228;SDS011;57617;51.988;5.854;2023-05-14T10:26:05;8.90;;;6.20;;
70228;SDS011;57617;51.988;5.854;2023-05-14T10:28:30;9.70;;;6.43;;
70228;SDS011;57617;51.988;5.854;2023-05-14T10:30:58;8.02;;;6.25;;
70228;SDS011;57617;51.988;5.854;2023-05-14T10:33:24;9.82;;;5.90;;
70228;SDS011;57617;51.988;5.854;2023-05-14T10:38:28;7.45;;;4.68;;
70228;SDS011;57617;51.988;5.854;2023-05-14T10:41:00;8.70;;;5.18;;
70228;SDS011;57617;51.988;5.854;2023-05-14T10:43:28;8.05;;;5.13;;
70228;SDS011;57617;51.988;5.854;2023-05-14T10:45:55;7.22;;;5.20;;
70228;SDS011;57617;51.988;5.854;2023-05-14T10:48:21;5.80;;;5.07;;
70228;SDS011;57617;51.988;5.854;2023-05-14T10:50:47;5.95;;;4.45;;
70228;SDS011;57617;51.988;5.854;2023-05-14T10:53:15;6.10;;;4.60;;
70228;SDS011;57617;51.988;5.854;2023-05-14T10:55:41;6.55;;;4.38;;
70228;SDS011;57617;51.988;5.854;2023-05-14T10:58:07;5.47;;;4.47;;
70228;SDS011;57617;51.988;5.854;2023-05-14T11:00:34;8.88;;;4.70;;
70228;SDS011;57617;51.988;5.854;2023-05-14T11:03:02;6.78;;;4.70;;
70228;SDS011;57617;51.988;5.854;2023-05-14T11:05:28;6.63;;;4.53;;
70228;SDS011;57617;51.988;5.854;2023-05-14T11:07:54;7.05;;;4.47;;
70228;SDS011;57617;51.988;5.854;2023-05-14T11:10:21;8.82;;;4.30;;
70228;SDS011;57617;51.988;5.854;2023-05-14T11:12:48;6.53;;;4.32;;
70228;SDS011;57617;51.988;5.854;2023-05-14T11:15:15;5.70;;;4.35;;
70228;SDS011;57617;51.988;5.854;2023-05-14T11:17:42;6.38;;;4.45;;
70228;SDS011;57617;51.988;5.854;2023-05-14T11:20:09;8.82;;;4.45;;
70228;SDS011;57617;51.988;5.854;2023-05-14T11:22:35;7.40;;;4.40;;
70228;SDS011;57617;51.988;5.854;2023-05-14T11:25:02;6.55;;;4.40;;
70228;SDS011;57617;51.988;5.854;2023-05-14T11:27:28;5.30;;;4.45;;
70228;SDS011;57617;51.988;5.854;2023-05-14T11:29:55;10.25;;;4.40;;
70228;SDS011;57617;51.988;5.854;2023-05-14T11:32:22;4.93;;;4.05;;
70228;SDS011;57617;51.988;5.854;2023-05-14T11:34:47;6.10;;;4.07;;
70228;SDS011;57617;51.988;5.854;2023-05-14T11:37:13;10.23;;;4.75;;
70228;SDS011;57617;51.988;5.854;2023-05-14T11:39:46;9.15;;;4.65;;
70228;SDS011;57617;51.988;5.854;2023-05-14T11:42:14;8.43;;;4.25;;
70228;SDS011;57617;51.988;5.854;2023-05-14T11:44:41;35.05;;;11.27;;
70228;SDS011;57617;51.988;5.854;2023-05-14T11:47:08;8.80;;;5.22;;
70228;SDS011;57617;51.988;5.854;2023-05-14T11:49:34;10.00;;;6.28;;
70228;SDS011;57617;51.988;5.854;2023-05-14T11:52:02;12.73;;;6.07;;
70228;SDS011;57617;51.988;5.854;2023-05-14T11:54:31;10.70;;;6.15;;
70228;SDS011;57617;51.988;5.854;2023-05-14T11:56:58;9.35;;;5.57;;
70228;SDS011;57617;51.988;5.854;2023-05-14T11:59:27;19.33;;;6.47;;
70228;SDS011;57617;51.988;5.854;2023-05-14T12:01:55;12.05;;;6.05;;
70228;SDS011;57617;51.988;5.854;2023-05-14T12:04:20;8.45;;;6.00;;
70228;SDS011;57617;51.988;5.854;2023-05-14T12:06:52;11.32;;;6.00;;
70228;SDS011;57617;51.988;5.854;2023-05-14T12:09:19;13.05;;;6.60;;
70228;SDS011;57617;51.988;5.854;2023-05-14T12:11:45;8.50;;;5.90;;
70228;SDS011;57617;51.988;5.854;2023-05-14T12:14:15;9.05;;;5.75;;
70228;SDS011;57617;51.988;5.854;2023-05-14T12:16:45;11.20;;;5.80;;
70228;SDS011;57617;51.988;5.854;2023-05-14T12:19:13;10.38;;;5.95;;
70228;SDS011;57617;51.988;5.854;2023-05-14T12:21:39;10.95;;;5.78;;
70228;SDS011;57617;51.988;5.854;2023-05-14T12:24:14;9.93;;;5.63;;
70228;SDS011;57617;51.988;5.854;2023-05-14T12:26:47;8.50;;;5.55;;
70228;SDS011;57617;51.988;5.854;2023-05-14T12:29:14;9.02;;;5.65;;
70228;SDS011;57617;51.988;5.854;2023-05-14T12:31:47;10.68;;;5.65;;
70228;SDS011;57617;51.988;5.854;2023-05-14T12:34:13;12.38;;;5.47;;
70228;SDS011;57617;51.988;5.854;2023-05-14T12:36:40;8.70;;;5.53;;
70228;SDS011;57617;51.988;5.854;2023-05-14T12:39:05;9.00;;;5.30;;
70228;SDS011;57617;51.988;5.854;2023-05-14T12:41:31;6.57;;;5.13;;
70228;SDS011;57617;51.988;5.854;2023-05-14T12:43:58;12.50;;;6.88;;
70228;SDS011;57617;51.988;5.854;2023-05-14T12:46:24;9.68;;;6.95;;
70228;SDS011;57617;51.988;5.854;2023-05-14T12:48:51;15.85;;;8.30;;
70228;SDS011;57617;51.988;5.854;2023-05-14T12:51:17;14.75;;;7.75;;
70228;SDS011;57617;51.988;5.854;2023-05-14T12:53:42;10.95;;;7.15;;
70228;SDS011;57617;51.988;5.854;2023-05-14T12:56:07;13.35;;;7.20;;
70228;SDS011;57617;51.988;5.854;2023-05-14T12:58:33;14.68;;;7.55;;
70228;SDS011;57617;51.988;5.854;2023-05-14T13:00:58;12.50;;;7.90;;
70228;SDS011;57617;51.988;5.854;2023-05-14T13:03:23;11.93;;;7.85;;
70228;SDS011;57617;51.988;5.854;2023-05-14T13:05:50;10.27;;;7.53;;
70228;SDS011;57617;51.988;5.854;2023-05-14T13:08:16;12.35;;;7.72;;
70228;SDS011;57617;51.988;5.854;2023-05-14T13:10:44;16.17;;;7.40;;
70228;SDS011;57617;51.988;5.854;2023-05-14T13:13:10;10.23;;;7.15;;
70228;SDS011;57617;51.988;5.854;2023-05-14T13:15:35;14.30;;;8.38;;
70228;SDS011;57617;51.988;5.854;2023-05-14T13:18:01;10.68;;;7.25;;
70228;SDS011;57617;51.988;5.854;2023-05-14T13:20:26;12.23;;;7.68;;
70228;SDS011;57617;51.988;5.854;2023-05-14T13:22:53;13.73;;;7.30;;
70228;SDS011;57617;51.988;5.854;2023-05-14T13:25:18;14.88;;;7.05;;
70228;SDS011;57617;51.988;5.854;2023-05-14T13:27:44;13.82;;;6.75;;
70228;SDS011;57617;51.988;5.854;2023-05-14T13:30:09;13.55;;;6.78;;
70228;SDS011;57617;51.988;5.854;2023-05-14T13:32:34;8.23;;;6.53;;
70228;SDS011;57617;51.988;5.854;2023-05-14T13:35:00;11.25;;;7.10;;
70228;SDS011;57617;51.988;5.854;2023-05-14T13:37:25;10.68;;;6.95;;
70228;SDS011;57617;51.988;5.854;2023-05-14T13:39:50;12.75;;;6.85;;
70228;SDS011;57617;51.988;5.854;2023-05-14T13:42:16;11.98;;;6.60;;
70228;SDS011;57617;51.988;5.854;2023-05-14T13:44:41;10.98;;;6.60;;
70228;SDS011;57617;51.988;5.854;2023-05-14T13:47:06;11.88;;;6.03;;
70228;SDS011;57617;51.988;5.854;2023-05-14T13:49:32;9.65;;;6.18;;
70228;SDS011;57617;51.988;5.854;2023-05-14T13:51:57;14.82;;;6.40;;
70228;SDS011;57617;51.988;5.854;2023-05-14T13:54:22;9.13;;;5.82;;
70228;SDS011;57617;51.988;5.854;2023-05-14T13:56:48;8.70;;;5.63;;
70228;SDS011;57617;51.988;5.854;2023-05-14T13:59:13;7.82;;;5.82;;
70228;SDS011;57617;51.988;5.854;2023-05-14T14:01:39;11.25;;;5.60;;
70228;SDS011;57617;51.988;5.854;2023-05-14T14:04:04;7.22;;;5.90;;
70228;SDS011;57617;51.988;5.854;2023-05-14T14:06:29;8.90;;;6.25;;
70228;SDS011;57617;51.988;5.854;2023-05-14T14:08:56;10.27;;;6.60;;
70228;SDS011;57617;51.988;5.854;2023-05-14T14:11:21;12.00;;;6.30;;
70228;SDS011;57617;51.988;5.854;2023-05-14T14:13:47;9.48;;;6.30;;
70228;SDS011;57617;51.988;5.854;2023-05-14T14:16:12;12.07;;;6.30;;
70228;SDS011;57617;51.988;5.854;2023-05-14T14:18:38;9.30;;;6.50;;
70228;SDS011;57617;51.988;5.854;2023-05-14T14:21:03;9.48;;;6.13;;
70228;SDS011;57617;51.988;5.854;2023-05-14T14:23:28;10.10;;;6.05;;
70228;SDS011;57617;51.988;5.854;2023-05-14T14:25:54;10.93;;;6.30;;
70228;SDS011;57617;51.988;5.854;2023-05-14T14:28:19;8.25;;;5.68;;
70228;SDS011;57617;51.988;5.854;2023-05-14T14:30:44;9.70;;;6.28;;
70228;SDS011;57617;51.988;5.854;2023-05-14T14:33:10;10.85;;;5.50;;
70228;SDS011;57617;51.988;5.854;2023-05-14T14:35:35;9.35;;;5.78;;